Sainte-Croix, Canada
Current Conditions -  °F | °C
As of 3:00 PM on Thursday 18 Dec 2014 (Local Time) from CYQB Reporting Station
Overcast Overcast  
Wind Chill: 26°   Ceiling: 7100
Heat Index: 32°   Visibility: 15mi
Dew Point: 27°   Wind: 6mph
Humidity: 80%   Direction: 290°WNW
Pressure: 29.76"   Gusts: NA
Location:  46.62°N, 71.73°W
Report Text: CYQB 182000Z 29005KT 15SM FEW010 SCT035 OVC071 00/M03 A2976 RMK SF1SC3AC5 SF TR SLP083
Loading
Personal Weather Stations






























Interactive Weather Map New forecast layout! Learn more

10-Day Weather Forecast

Advertisements
Track Severe Weather on mobile